Time;durP1;ratioP1;P1;durP2;ratioP2;P2;SDS_P1;SDS_P2;PMS_P1;PMS_P2;Temp;Humidity;BMP_temperature;BMP_pressure;BME280_temperature;BME280_humidity;BME280_pressure;Samples;Min_cycle;Max_cycle;Signal;HPM_P1;HPM_P2
2022/08/14 06:02:57;;;;;;;;;4.00;4.00;;;;;25.53;28.33;100343.84;4962061;28;45471;-65
2022/08/14 06:05:23;;;;;;;;;2.67;2.00;;;;;25.56;29.00;100341.59;4963134;28;46173;-64
2022/08/14 06:07:48;;;;;;;;;3.00;3.00;;;;;25.61;28.74;100318.41;4961331;28;45440;-65
2022/08/14 06:10:14;;;;;;;;;4.00;4.00;;;;;25.59;28.53;100343.94;4960854;28;59930;-65
2022/08/14 06:12:39;;;;;;;;;5.00;5.00;;;;;25.58;28.33;100333.25;4958626;28;45389;-65
2022/08/14 06:15:06;;;;;;;;;7.00;4.00;;;;;25.63;29.30;100336.25;4963445;28;45403;-65
2022/08/14 06:17:42;;;;;;;;;3.00;3.00;;;;;25.66;28.79;100357.66;4958525;28;45475;-65
2022/08/14 06:20:08;;;;;;;;;7.00;6.00;;;;;25.69;28.89;100335.50;4966318;28;45377;-65
2022/08/14 06:22:33;;;;;;;;;6.00;5.33;;;;;25.73;29.09;100315.00;4961009;28;46022;-65
2022/08/14 06:24:58;;;;;;;;;3.00;3.00;;;;;25.75;28.96;100350.25;4960495;28;75584;-65
2022/08/14 06:27:24;;;;;;;;;4.00;4.00;;;;;25.72;28.52;100345.16;4958963;28;62269;-65
2022/08/14 06:29:49;;;;;;;;;3.00;3.00;;;;;25.73;29.37;100333.25;4962906;28;64510;-65
2022/08/14 06:32:15;;;;;;;;;3.33;3.00;;;;;25.75;28.77;100329.31;4963395;28;67680;-65
2022/08/14 06:34:40;;;;;;;;;3.33;3.33;;;;;25.81;28.74;100335.03;4960728;28;45512;-65
2022/08/14 06:37:05;;;;;;;;;5.00;5.00;;;;;25.87;28.99;100337.84;4961973;28;69215;-65
2022/08/14 06:39:32;;;;;;;;;4.00;4.00;;;;;25.93;28.64;100339.00;4963304;28;64285;-65
2022/08/14 06:41:58;;;;;;;;;3.67;3.67;;;;;25.99;28.60;100334.66;4964146;28;45258;-65
2022/08/14 06:44:23;;;;;;;;;3.00;3.00;;;;;25.99;28.68;100340.09;4964511;28;45208;-65
2022/08/14 06:46:49;;;;;;;;;4.00;4.00;;;;;26.02;29.40;100331.53;4953817;28;53077;-65
2022/08/14 06:49:14;;;;;;;;;4.00;4.00;;;;;26.04;29.23;100335.78;4965262;28;65676;-66
2022/08/14 06:51:45;;;;;;;;;4.00;3.67;;;;;26.04;28.92;100341.25;4962162;28;61516;-66
2022/08/14 06:54:12;;;;;;;;;3.33;3.33;;;;;26.01;29.31;100352.50;4967741;28;46253;-66
2022/08/14 06:56:37;;;;;;;;;6.00;4.00;;;;;25.97;28.88;100353.06;4962837;28;45361;-66
2022/08/14 06:59:02;;;;;;;;;4.00;4.00;;;;;25.97;29.34;100355.78;4964254;28;45349;-66
2022/08/14 07:06:56;;;;;;;;;4.67;4.67;;;;;25.98;29.14;100349.31;4967268;28;45400;-66
2022/08/14 07:09:21;;;;;;;;;4.33;3.00;;;;;25.94;29.31;100351.56;4961436;28;62903;-67
2022/08/14 07:11:46;;;;;;;;;5.33;5.33;;;;;25.93;30.01;100358.88;4966250;28;45395;-66
2022/08/14 07:14:12;;;;;;;;;4.00;4.00;;;;;25.89;29.91;100354.84;4963965;28;72352;-68
2022/08/14 07:16:37;;;;;;;;;3.33;3.33;;;;;25.93;30.54;100353.44;4961102;28;45755;-66
2022/08/14 07:19:03;;;;;;;;;6.33;5.00;;;;;25.95;29.67;100346.97;4964421;28;62747;-66
2022/08/14 07:21:28;;;;;;;;;3.67;3.67;;;;;25.96;30.52;100345.91;4963593;28;45210;-67
2022/08/14 07:23:53;;;;;;;;;4.33;4.33;;;;;26.03;30.46;100352.31;4964698;28;45326;-64
2022/08/14 07:26:19;;;;;;;;;3.00;3.00;;;;;26.10;30.49;100353.28;4966094;28;65610;-64
2022/08/14 07:28:44;;;;;;;;;5.00;4.00;;;;;26.14;29.24;100367.34;4960503;28;55020;-64
2022/08/14 07:31:11;;;;;;;;;5.00;4.00;;;;;26.05;29.11;100372.91;4962183;28;45362;-66
2022/08/14 07:33:45;;;;;;;;;4.00;3.67;;;;;25.90;29.48;100362.00;4964566;28;46103;-66
2022/08/14 07:36:12;;;;;;;;;3.00;2.33;;;;;25.87;29.11;100365.09;4955079;28;45669;-66
2022/08/14 07:38:42;;;;;;;;;2.33;2.33;;;;;26.01;29.01;100366.13;4960396;28;45967;-65
2022/08/14 07:41:09;;;;;;;;;3.67;3.67;;;;;26.19;28.78;100357.59;4960210;28;45628;-66
2022/08/14 07:43:34;;;;;;;;;3.00;3.00;;;;;26.33;28.29;100352.28;4960529;28;45728;-67
2022/08/14 07:46:00;;;;;;;;;2.67;2.67;;;;;26.53;29.08;100350.66;4960622;28;45454;-65
2022/08/14 07:48:25;;;;;;;;;2.67;2.67;;;;;26.89;27.87;100357.97;4959578;28;68648;-65
2022/08/14 07:50:52;;;;;;;;;3.67;3.00;;;;;27.20;27.97;100362.25;4958615;28;62091;-65
2022/08/14 07:53:18;;;;;;;;;4.67;3.00;;;;;27.42;27.29;100355.94;4960251;28;46444;-66
2022/08/14 07:55:45;;;;;;;;;2.67;2.67;;;;;27.45;27.38;100356.38;4958468;28;45686;-67
2022/08/14 07:58:10;;;;;;;;;4.00;3.67;;;;;27.60;27.08;100341.78;4959033;28;45426;-66
2022/08/14 08:00:37;;;;;;;;;3.67;3.67;;;;;27.94;27.27;100326.41;4960124;28;45366;-67
2022/08/14 08:03:07;;;;;;;;;3.00;3.00;;;;;28.37;26.13;100320.75;4960321;28;46315;-66
2022/08/14 08:05:33;;;;;;;;;2.00;2.00;;;;;28.66;26.24;100316.84;4958304;28;45294;-66
2022/08/14 08:07:58;;;;;;;;;3.00;3.00;;;;;28.90;25.91;100328.22;4959979;28;45372;-67
2022/08/14 08:10:31;;;;;;;;;2.33;2.33;;;;;29.15;25.68;100333.09;4959463;28;66109;-66
2022/08/14 08:13:18;;;;;;;;;5.00;3.00;;;;;29.31;25.40;100346.38;4960703;28;45474;-66
2022/08/14 08:15:52;;;;;;;;;3.33;3.33;;;;;29.27;25.39;100345.13;4958991;28;45251;-66
2022/08/14 08:18:18;;;;;;;;;3.67;3.00;;;;;29.33;25.43;100336.09;4960343;28;45538;-66
2022/08/14 08:20:46;;;;;;;;;4.00;2.33;;;;;29.57;25.01;100338.34;4958633;28;45351;-66
2022/08/14 08:23:12;;;;;;;;;2.67;2.33;;;;;29.83;24.83;100343.78;4959190;28;45429;-65
2022/08/14 08:25:40;;;;;;;;;3.33;3.33;;;;;30.02;24.89;100350.28;4957615;28;45824;-66
2022/08/14 08:28:17;;;;;;;;;5.00;3.67;;;;;30.15;24.48;100351.28;4959255;28;45362;-65
2022/08/14 08:30:48;;;;;;;;;4.67;4.67;;;;;30.21;24.96;100353.16;4959664;28;45720;-65
2022/08/14 08:33:16;;;;;;;;;3.33;3.33;;;;;30.43;24.78;100347.34;4958873;28;45469;-65
2022/08/14 08:35:42;;;;;;;;;2.00;2.00;;;;;30.73;23.66;100355.88;4958690;28;45381;-72
2022/08/14 08:38:13;;;;;;;;;2.33;2.33;;;;;31.17;23.46;100353.25;4968897;28;45471;-76
2022/08/14 08:40:49;;;;;;;;;3.33;3.33;;;;;31.45;23.13;100350.06;4965771;28;45416;-75
2022/08/14 08:43:35;;;;;;;;;3.33;3.33;;;;;31.68;22.97;100354.09;4963304;28;45408;-74
2022/08/14 08:46:07;;;;;;;;;3.00;3.00;;;;;32.03;22.65;100355.41;4962445;28;45394;-75
2022/08/14 08:48:44;;;;;;;;;2.67;2.67;;;;;32.42;21.79;100356.81;4966447;28;45310;-74
2022/08/14 08:51:21;;;;;;;;;4.00;4.00;;;;;32.88;21.89;100361.91;4964622;28;45523;-75
2022/08/14 08:54:06;;;;;;;;;0.00;0.00;;;;;33.38;21.29;100357.97;4963892;28;47160;-75
2022/08/14 08:56:41;;;;;;;;;1.33;1.33;;;;;33.84;20.87;100359.03;4966326;28;45544;-75
2022/08/14 08:59:16;;;;;;;;;3.00;3.00;;;;;34.21;20.72;100363.38;4963213;28;45374;-75
2022/08/14 09:01:46;;;;;;;;;3.67;3.67;;;;;34.59;20.15;100356.47;4962819;28;45456;-75
2022/08/14 09:04:13;;;;;;;;;3.33;3.33;;;;;34.78;20.48;100348.78;4965570;28;46334;-74
2022/08/14 09:06:49;;;;;;;;;2.00;1.33;;;;;34.89;19.79;100341.56;4964067;28;45644;-74
2022/08/14 09:09:33;;;;;;;;;3.00;3.00;;;;;34.68;20.47;100334.78;4967058;28;45257;-74
2022/08/14 09:12:00;;;;;;;;;4.00;4.00;;;;;34.30;20.85;100328.81;4958858;28;45235;-75
2022/08/14 09:14:28;;;;;;;;;5.00;4.00;;;;;33.91;20.94;100336.84;4964973;28;45396;-75
2022/08/14 09:16:58;;;;;;;;;2.00;2.00;;;;;33.54;21.62;100331.59;4961966;28;45496;-75
2022/08/14 09:19:25;;;;;;;;;4.67;4.67;;;;;33.19;22.06;100326.91;4964314;28;45382;-75
2022/08/14 09:21:50;;;;;;;;;3.33;3.33;;;;;32.98;22.75;100334.66;4963772;28;45367;-75
2022/08/14 09:24:15;;;;;;;;;5.00;4.00;;;;;32.76;22.67;100342.63;4967468;28;47144;-74
2022/08/14 09:26:42;;;;;;;;;4.00;4.00;;;;;32.54;23.14;100334.88;4964378;28;66194;-75
2022/08/14 09:29:09;;;;;;;;;3.33;3.33;;;;;32.35;23.43;100328.56;4967804;28;45623;-75
2022/08/14 09:31:37;;;;;;;;;3.33;3.33;;;;;32.27;23.94;100321.47;4965025;28;45352;-75
2022/08/14 09:34:31;;;;;;;;;5.33;5.33;;;;;32.23;23.45;100314.78;4964857;28;45522;-76
2022/08/14 09:37:15;;;;;;;;;4.00;4.00;;;;;32.29;23.94;100318.50;4954885;28;45511;-75
2022/08/14 09:40:02;;;;;;;;;3.00;3.00;;;;;32.28;24.36;100316.81;4962786;28;45306;-76
2022/08/14 09:43:05;;;;;;;;;4.00;4.00;;;;;32.34;24.11;100329.63;4966518;28;45702;-75
2022/08/14 09:45:47;;;;;;;;;1.00;1.00;;;;;32.37;24.43;100331.91;4947191;28;46249;-75
2022/08/14 09:48:17;;;;;;;;;2.67;2.67;;;;;32.38;24.20;100324.53;4971060;28;45402;-75
2022/08/14 09:50:48;;;;;;;;;3.00;3.00;;;;;32.35;23.84;100323.06;4972062;28;45810;-75
2022/08/14 09:53:16;;;;;;;;;4.00;2.00;;;;;32.33;24.33;100331.56;4971268;28;45520;-75
2022/08/14 09:55:41;;;;;;;;;3.33;3.33;;;;;32.31;24.44;100344.69;4968061;28;47141;-76
2022/08/14 09:58:13;;;;;;;;;3.67;3.67;;;;;32.37;24.55;100342.09;4969799;28;67444;-75
2022/08/14 10:00:53;;;;;;;;;2.67;2.67;;;;;32.56;24.74;100334.63;4960873;28;45365;-75
2022/08/14 10:03:33;;;;;;;;;3.00;3.00;;;;;32.88;24.58;100326.97;4971292;28;45511;-75
2022/08/14 10:06:10;;;;;;;;;1.67;1.00;;;;;33.20;24.05;100332.16;4968640;28;45981;-75
2022/08/14 10:08:40;;;;;;;;;2.33;2.00;;;;;33.52;23.84;100333.75;4970716;28;45339;-75
2022/08/14 10:11:36;;;;;;;;;2.67;2.67;;;;;33.95;23.78;100327.03;4977233;28;45409;-74
2022/08/14 10:14:19;;;;;;;;;2.33;2.33;;;;;34.27;23.55;100321.03;4972058;28;45545;-75
2022/08/14 10:16:47;;;;;;;;;3.00;3.00;;;;;34.51;22.92;100329.22;4973520;28;45386;-75
2022/08/14 10:19:15;;;;;;;;;2.67;2.67;;;;;34.59;23.19;100328.84;4964262;28;45322;-75
2022/08/14 10:21:42;;;;;;;;;4.00;1.67;;;;;34.74;23.14;100326.34;4970888;28;45222;-76
2022/08/14 10:24:22;;;;;;;;;4.00;0.00;;;;;35.10;23.07;100312.34;4977771;28;45489;-75
2022/08/14 10:26:59;;;;;;;;;2.67;2.67;;;;;35.39;22.82;100312.25;4973191;28;45429;-75
2022/08/14 10:29:33;;;;;;;;;1.67;1.67;;;;;35.42;22.42;100314.50;4976732;28;45235;-76
2022/08/14 10:31:59;;;;;;;;;3.00;3.00;;;;;35.24;22.06;100310.06;4973190;28;45330;-75
2022/08/14 10:34:31;;;;;;;;;1.00;1.00;;;;;34.94;22.40;100309.34;4972288;28;45541;-75
2022/08/14 10:37:12;;;;;;;;;0.67;0.67;;;;;34.68;22.79;100321.84;4968461;28;45393;-75
2022/08/14 10:39:39;;;;;;;;;3.33;2.67;;;;;34.43;22.85;100320.28;4971599;28;45425;-76
2022/08/14 10:42:10;;;;;;;;;2.67;2.67;;;;;34.23;22.87;100319.84;4968462;28;45404;-75
2022/08/14 10:44:45;;;;;;;;;2.00;2.00;;;;;34.02;23.23;100318.63;4971119;28;45688;-76
2022/08/14 10:47:12;;;;;;;;;2.00;2.00;;;;;33.84;23.11;100316.84;4972235;28;46985;-75
2022/08/14 10:49:48;;;;;;;;;2.33;2.33;;;;;33.76;23.43;100320.78;4971902;28;45444;-75
2022/08/14 10:52:23;;;;;;;;;3.33;3.33;;;;;33.74;23.42;100329.31;4974372;28;45460;-75
2022/08/14 10:54:48;;;;;;;;;2.00;2.00;;;;;33.73;23.37;100327.63;4974701;28;45255;-75
2022/08/14 10:57:26;;;;;;;;;1.67;1.67;;;;;33.67;23.35;100327.75;4972742;28;46320;-75
2022/08/14 10:59:54;;;;;;;;;2.00;2.00;;;;;33.54;23.47;100324.16;4968464;28;45286;-75
2022/08/14 11:02:34;;;;;;;;;1.33;1.33;;;;;33.36;23.61;100333.38;4969417;28;45422;-76
2022/08/14 11:04:59;;;;;;;;;2.33;2.33;;;;;33.21;23.98;100331.09;4975449;28;45316;-75
2022/08/14 11:07:25;;;;;;;;;2.67;2.67;;;;;33.07;24.02;100333.22;4972843;28;46169;-75
2022/08/14 11:10:00;;;;;;;;;3.33;3.33;;;;;32.93;24.30;100342.78;4975186;28;45301;-75
2022/08/14 11:12:37;;;;;;;;;1.67;1.67;;;;;32.74;24.43;100325.53;4974492;28;45317;-75
2022/08/14 11:15:02;;;;;;;;;1.67;1.67;;;;;32.59;24.67;100332.28;4971888;28;45324;-75
2022/08/14 11:17:29;;;;;;;;;3.00;3.00;;;;;32.49;24.94;100335.56;4975843;28;45996;-75
2022/08/14 11:19:58;;;;;;;;;3.00;3.00;;;;;32.45;24.45;100341.75;4973534;28;45380;-75
2022/08/14 11:22:26;;;;;;;;;2.33;2.33;;;;;32.40;25.38;100338.88;4976903;28;45297;-75
2022/08/14 11:24:55;;;;;;;;;1.67;1.67;;;;;32.30;25.30;100336.69;4972979;28;45484;-75
2022/08/14 11:27:20;;;;;;;;;1.00;1.00;;;;;32.23;25.01;100333.16;4957036;28;46389;-75
2022/08/14 11:29:48;;;;;;;;;2.00;2.00;;;;;32.16;24.82;100339.59;4969783;28;45749;-75
2022/08/14 11:32:13;;;;;;;;;2.67;2.67;;;;;32.08;25.99;100341.81;4971688;28;45337;-75
2022/08/14 11:34:38;;;;;;;;;2.00;2.00;;;;;31.91;25.79;100341.59;4970402;28;67710;-75
2022/08/14 11:37:11;;;;;;;;;4.00;4.00;;;;;31.73;25.89;100343.25;4966544;28;67121;-76
2022/08/14 11:39:36;;;;;;;;;2.00;2.00;;;;;31.70;26.46;100343.72;4968663;28;45475;-75
2022/08/14 11:42:06;;;;;;;;;2.00;2.00;;;;;31.72;25.96;100338.84;4972979;28;68126;-75
2022/08/14 11:44:31;;;;;;;;;3.67;2.67;;;;;31.69;25.55;100336.53;4969617;28;45413;-75
2022/08/14 11:46:57;;;;;;;;;2.00;2.00;;;;;31.65;26.34;100338.06;4975464;28;45957;-75
2022/08/14 11:49:27;;;;;;;;;4.00;3.33;;;;;31.62;26.35;100330.28;4970281;28;68746;-75
2022/08/14 11:51:53;;;;;;;;;1.00;1.00;;;;;31.56;26.66;100333.88;4972086;28;45450;-75
2022/08/14 11:54:19;;;;;;;;;2.00;2.00;;;;;31.55;26.76;100340.44;4970822;28;45217;-75
2022/08/14 11:56:48;;;;;;;;;3.00;3.00;;;;;31.50;27.31;100344.72;4975864;28;46181;-75
2022/08/14 11:59:16;;;;;;;;;4.33;4.33;;;;;31.47;26.83;100339.69;4970399;28;45572;-75
2022/08/14 12:01:44;;;;;;;;;4.67;3.67;;;;;31.46;27.14;100342.63;4968759;28;45246;-75
2022/08/14 12:04:18;;;;;;;;;4.33;3.00;;;;;31.45;26.51;100343.72;4971005;28;45440;-75
2022/08/14 12:06:47;;;;;;;;;4.00;4.00;;;;;31.45;26.49;100347.31;4966740;28;45447;-75
2022/08/14 12:09:13;;;;;;;;;3.00;3.00;;;;;31.44;26.87;100342.03;4974019;28;45361;-75
2022/08/14 12:11:40;;;;;;;;;3.00;3.00;;;;;31.38;26.87;100334.69;4974984;28;45250;-75
2022/08/14 12:14:07;;;;;;;;;4.00;3.00;;;;;31.32;27.47;100348.25;4974810;28;45569;-74
2022/08/14 12:16:34;;;;;;;;;3.00;2.67;;;;;31.24;28.91;100350.44;4974697;28;47075;-75
2022/08/14 12:19:00;;;;;;;;;4.67;4.67;;;;;31.11;29.63;100356.91;4973827;28;45649;-75
2022/08/14 12:21:26;;;;;;;;;3.67;3.67;;;;;30.94;29.97;100356.59;4974575;28;45808;-74
2022/08/14 12:24:08;;;;;;;;;3.00;3.00;;;;;30.73;32.36;100366.00;4974377;28;45412;-74
2022/08/14 12:26:36;;;;;;;;;5.33;4.00;;;;;30.46;31.39;100366.13;4971959;28;45380;-74
2022/08/14 12:29:09;;;;;;;;;6.00;6.00;;;;;30.31;32.49;100360.91;4976097;28;45400;-75
2022/08/14 12:31:36;;;;;;;;;3.00;3.00;;;;;30.17;32.06;100376.59;4972459;28;45505;-74
2022/08/14 12:34:03;;;;;;;;;4.00;4.00;;;;;30.09;34.09;100374.09;4966010;28;45595;-74
2022/08/14 12:36:29;;;;;;;;;3.00;3.00;;;;;29.95;32.55;100376.03;4961810;28;45542;-74
2022/08/14 12:38:55;;;;;;;;;4.33;4.33;;;;;29.88;33.43;100386.16;4967552;28;45618;-74
2022/08/14 12:41:22;;;;;;;;;4.67;3.67;;;;;29.79;33.37;100397.34;4967749;28;45267;-74
2022/08/14 12:43:50;;;;;;;;;4.00;4.00;;;;;29.71;33.82;100386.56;4972540;28;46084;-74
2022/08/14 12:46:22;;;;;;;;;1.67;1.67;;;;;29.47;33.63;100396.31;4969231;28;46506;-74
2022/08/14 12:48:47;;;;;;;;;2.33;2.33;;;;;29.26;34.43;100391.88;4973648;28;45289;-75
2022/08/14 12:51:21;;;;;;;;;2.00;2.00;;;;;29.09;34.94;100395.00;4969021;28;66128;-74
2022/08/14 12:53:47;;;;;;;;;0.33;0.33;;;;;29.01;35.50;100401.50;4973397;28;45755;-74
2022/08/14 12:56:17;;;;;;;;;1.67;1.67;;;;;28.92;36.08;100401.94;4970827;28;45304;-74
2022/08/14 12:58:48;;;;;;;;;3.00;3.00;;;;;28.87;36.43;100395.16;4972954;28;45290;-74
2022/08/14 13:01:22;;;;;;;;;5.00;5.00;;;;;28.76;37.70;100412.22;4965835;28;45393;-74
2022/08/14 13:03:47;;;;;;;;;3.67;3.67;;;;;28.48;38.29;100410.38;4969930;28;45598;-75
2022/08/14 13:06:13;;;;;;;;;1.00;1.00;;;;;28.22;39.01;100405.63;4973887;28;45615;-74
2022/08/14 13:08:41;;;;;;;;;2.00;2.00;;;;;28.04;38.67;100403.44;4971255;28;45396;-74
2022/08/14 13:11:11;;;;;;;;;1.67;1.67;;;;;27.89;39.65;100398.06;4975435;28;45377;-74
2022/08/14 13:13:40;;;;;;;;;2.00;2.00;;;;;27.76;40.19;100393.38;4969765;28;45726;-74
2022/08/14 13:16:06;;;;;;;;;1.00;1.00;;;;;27.75;39.63;100378.00;4975691;28;46234;-75
2022/08/14 13:18:33;;;;;;;;;1.00;1.00;;;;;27.73;39.29;100374.66;4971773;28;45772;-74
2022/08/14 13:21:00;;;;;;;;;3.00;2.00;;;;;27.79;40.09;100378.47;4970088;28;46228;-74
2022/08/14 13:23:31;;;;;;;;;1.00;1.00;;;;;27.89;39.46;100384.41;4972408;28;45343;-74
2022/08/14 13:25:57;;;;;;;;;1.33;1.33;;;;;28.00;38.83;100381.13;4978434;28;46483;-74
2022/08/14 13:28:26;;;;;;;;;2.00;2.00;;;;;28.10;39.06;100385.41;4975291;28;45374;-74
2022/08/14 13:30:51;;;;;;;;;2.33;2.33;;;;;28.18;38.76;100379.75;4979878;28;45358;-74
2022/08/14 13:33:20;;;;;;;;;1.33;1.33;;;;;28.20;39.59;100375.78;4965605;28;45560;-75
2022/08/14 13:35:48;;;;;;;;;3.00;2.00;;;;;28.22;38.44;100362.75;4964921;28;46314;-74
2022/08/14 13:38:19;;;;;;;;;3.00;3.00;;;;;28.16;39.05;100357.25;4972035;28;45446;-75
2022/08/14 13:40:45;;;;;;;;;1.67;1.67;;;;;28.12;39.04;100358.69;4975450;28;45341;-74
2022/08/14 13:43:11;;;;;;;;;1.00;1.00;;;;;28.13;39.04;100361.22;4971635;28;45651;-74
2022/08/14 13:45:37;;;;;;;;;4.00;3.00;;;;;28.15;38.86;100367.34;4975111;28;45342;-74
2022/08/14 13:48:02;;;;;;;;;2.33;1.00;;;;;28.15;39.38;100358.31;4972029;28;45355;-74
2022/08/14 13:50:28;;;;;;;;;2.33;2.33;;;;;28.23;39.99;100353.50;4974483;28;62068;-74
2022/08/14 13:52:56;;;;;;;;;5.33;2.67;;;;;28.35;40.10;100355.66;4964320;28;70321;-74
2022/08/14 13:55:25;;;;;;;;;2.33;2.33;;;;;28.35;40.13;100359.22;4974711;28;46316;-74
2022/08/14 13:57:50;;;;;;;;;1.00;0.33;;;;;28.40;39.68;100355.88;4971578;28;45364;-74
2022/08/14 14:00:17;;;;;;;;;2.00;2.00;;;;;28.35;39.57;100355.66;4968707;28;45756;-74
2022/08/14 14:02:45;;;;;;;;;2.00;2.00;;;;;28.23;40.04;100348.03;4973684;28;45492;-74
2022/08/14 14:05:17;;;;;;;;;0.67;0.67;;;;;28.15;40.64;100342.75;4975411;28;46182;-74
2022/08/14 14:07:45;;;;;;;;;1.67;0.33;;;;;28.20;40.47;100344.88;4974765;28;45374;-74
2022/08/14 14:10:12;;;;;;;;;2.00;2.00;;;;;28.15;40.05;100345.47;4975298;28;45180;-74
2022/08/14 14:12:39;;;;;;;;;1.00;1.00;;;;;28.05;40.49;100334.06;4971827;28;45280;-74
2022/08/14 14:15:10;;;;;;;;;2.33;2.33;;;;;28.08;40.35;100333.66;4971015;28;46327;-74
2022/08/14 14:17:37;;;;;;;;;3.67;2.67;;;;;28.05;41.08;100325.88;4976371;28;45179;-74
2022/08/14 14:20:09;;;;;;;;;1.33;1.33;;;;;27.96;40.90;100327.06;4973911;28;45764;-74
2022/08/14 14:22:36;;;;;;;;;3.67;3.67;;;;;28.03;41.30;100323.34;4960563;28;45471;-74
2022/08/14 14:25:01;;;;;;;;;1.67;1.67;;;;;28.05;40.91;100320.41;4972721;28;47213;-74
2022/08/14 14:27:27;;;;;;;;;2.00;2.00;;;;;28.05;40.84;100331.34;4976767;28;68636;-74
2022/08/14 14:29:56;;;;;;;;;2.00;2.00;;;;;27.98;40.16;100322.25;4972782;28;45452;-74
2022/08/14 14:32:31;;;;;;;;;4.00;2.00;;;;;27.96;40.66;100325.16;4969246;28;45421;-74
2022/08/14 14:35:01;;;;;;;;;2.33;2.33;;;;;27.95;40.36;100328.09;4970254;28;45568;-74
2022/08/14 14:37:27;;;;;;;;;1.67;1.67;;;;;27.89;40.40;100319.66;4968812;28;45444;-74
2022/08/14 14:39:55;;;;;;;;;2.00;2.00;;;;;27.87;40.55;100319.06;4971056;28;45377;-74
2022/08/14 14:42:24;;;;;;;;;2.67;2.67;;;;;27.84;40.26;100310.41;4973310;28;45476;-74
2022/08/14 14:44:57;;;;;;;;;2.00;2.00;;;;;27.83;40.28;100309.53;4970981;28;45344;-75
2022/08/14 14:47:22;;;;;;;;;0.67;0.67;;;;;27.83;40.55;100300.53;4972290;28;45535;-74
2022/08/14 14:49:48;;;;;;;;;0.00;0.00;;;;;27.86;39.67;100300.09;4971303;28;68600;-74
2022/08/14 14:52:15;;;;;;;;;2.00;1.67;;;;;27.87;40.11;100299.94;4974627;28;45467;-73
2022/08/14 14:54:42;;;;;;;;;3.00;1.33;;;;;27.92;40.05;100299.28;4973037;28;46943;-74
2022/08/14 14:57:12;;;;;;;;;1.67;1.67;;;;;27.98;39.86;100301.22;4974387;28;45464;-73
2022/08/14 14:59:38;;;;;;;;;1.00;1.00;;;;;28.05;39.44;100307.56;4970158;28;45405;-74
2022/08/14 15:02:05;;;;;;;;;2.00;2.00;;;;;28.02;39.72;100309.91;4969055;28;67089;-74
2022/08/14 15:04:33;;;;;;;;;2.33;2.33;;;;;28.00;39.91;100311.94;4970258;28;46152;-74
2022/08/14 15:06:59;;;;;;;;;2.33;1.67;;;;;27.98;39.60;100311.31;4973737;28;45255;-74
2022/08/14 15:09:24;;;;;;;;;3.67;2.00;;;;;28.00;39.95;100309.22;4975734;28;45410;-74
2022/08/14 15:11:50;;;;;;;;;0.00;0.00;;;;;28.02;39.87;100307.16;4973130;28;68399;-75
2022/08/14 15:14:15;;;;;;;;;1.00;1.00;;;;;28.08;39.47;100303.59;4975459;28;46913;-73
2022/08/14 15:16:40;;;;;;;;;4.00;4.00;;;;;28.09;39.97;100301.72;4973399;28;45379;-74
2022/08/14 15:19:09;;;;;;;;;2.00;2.00;;;;;28.04;39.76;100294.97;4970060;28;57600;-74
2022/08/14 15:21:35;;;;;;;;;2.00;2.00;;;;;28.10;39.65;100293.31;4969695;28;45442;-74
2022/08/14 15:24:00;;;;;;;;;2.67;1.00;;;;;28.13;40.05;100286.59;4975903;28;45342;-74
2022/08/14 15:26:26;;;;;;;;;1.00;1.00;;;;;28.26;39.40;100278.44;4973930;28;45400;-74
2022/08/14 15:28:51;;;;;;;;;2.00;2.00;;;;;28.36;39.31;100294.47;4976179;28;53131;-74
2022/08/14 15:31:17;;;;;;;;;1.67;1.67;;;;;28.36;39.53;100286.25;4974845;28;45298;-74
2022/08/14 15:36:27;;;;;;;;;2.00;2.00;;;;;28.44;39.53;100271.53;4964074;28;45407;-74
2022/08/14 15:38:54;;;;;;;;;1.67;1.67;;;;;28.53;38.80;100273.88;4975587;28;45225;-74
2022/08/14 15:41:20;;;;;;;;;3.67;1.67;;;;;28.59;39.36;100279.56;4969395;28;45362;-74
2022/08/14 15:43:45;;;;;;;;;4.00;4.00;;;;;28.58;38.79;100272.38;4967247;28;46417;-74
2022/08/14 15:46:11;;;;;;;;;2.33;2.33;;;;;28.49;39.32;100272.59;4969141;28;69799;-75
2022/08/14 15:48:36;;;;;;;;;5.67;4.00;;;;;28.51;39.13;100275.13;4968385;28;45626;-74
2022/08/14 15:51:01;;;;;;;;;3.00;3.00;;;;;28.57;38.93;100263.34;4969766;28;54954;-75
2022/08/14 15:53:27;;;;;;;;;2.00;2.00;;;;;28.65;39.43;100273.25;4975461;28;46211;-74
2022/08/14 15:55:54;;;;;;;;;5.00;5.00;;;;;28.72;40.39;100265.91;4970835;28;45417;-75
2022/08/14 15:58:20;;;;;;;;;8.00;7.00;;;;;28.73;40.56;100256.66;4975653;28;45357;-74
2022/08/14 16:03:30;;;;;;;;;5.00;5.00;;;;;28.73;40.69;100259.41;4973533;28;45533;-74
2022/08/14 16:05:55;;;;;;;;;6.00;6.00;;;;;28.78;40.85;100253.31;4972146;28;70609;-75
2022/08/14 16:08:21;;;;;;;;;7.00;7.00;;;;;28.77;40.78;100251.63;4974783;28;45476;-75
2022/08/14 16:10:47;;;;;;;;;7.67;7.67;;;;;28.76;41.02;100248.06;4971740;28;45412;-75
2022/08/14 16:13:13;;;;;;;;;2.67;2.67;;;;;28.79;40.94;100247.63;4975049;28;46066;-74
2022/08/14 16:15:40;;;;;;;;;5.67;4.33;;;;;28.81;40.86;100255.63;4972931;28;45373;-75
2022/08/14 16:18:09;;;;;;;;;6.33;6.33;;;;;28.78;41.08;100251.41;4973009;28;45424;-75
2022/08/14 16:20:40;;;;;;;;;5.00;5.00;;;;;28.74;41.12;100252.88;4958862;28;45478;-74
2022/08/14 16:23:05;;;;;;;;;5.67;5.67;;;;;28.72;41.37;100244.03;4960168;28;46554;-74
2022/08/14 16:25:31;;;;;;;;;6.33;6.33;;;;;28.69;41.50;100242.59;4959655;28;56137;-74
2022/08/14 16:27:58;;;;;;;;;7.67;7.67;;;;;28.67;41.77;100244.69;4960431;28;45390;-74
2022/08/14 16:30:24;;;;;;;;;5.33;5.33;;;;;28.64;41.59;100236.88;4959490;28;45389;-74
2022/08/14 16:32:50;;;;;;;;;6.00;6.00;;;;;28.61;41.85;100242.72;4958163;28;46463;-74
2022/08/14 16:35:16;;;;;;;;;6.00;6.00;;;;;28.58;41.70;100240.44;4960133;28;45357;-74
2022/08/14 16:37:42;;;;;;;;;5.33;5.33;;;;;28.54;41.85;100239.16;4959799;28;45255;-74
2022/08/14 16:40:11;;;;;;;;;7.00;6.67;;;;;28.48;41.96;100240.00;4960602;28;45416;-74
2022/08/14 16:42:41;;;;;;;;;7.67;6.00;;;;;28.47;42.02;100241.03;4959349;28;46130;-74
2022/08/14 16:45:10;;;;;;;;;5.33;5.33;;;;;28.41;41.67;100240.00;4960099;28;45410;-74
2022/08/14 16:47:36;;;;;;;;;5.67;5.67;;;;;28.31;42.09;100234.06;4959670;28;45350;-75
2022/08/14 16:50:08;;;;;;;;;5.33;5.33;;;;;28.25;42.01;100230.25;4958508;28;45592;-74
2022/08/14 16:52:33;;;;;;;;;8.00;5.00;;;;;28.24;42.11;100223.13;4959364;28;46293;-74
2022/08/14 16:55:00;;;;;;;;;5.33;5.33;;;;;28.23;42.14;100235.94;4959465;28;67967;-75
2022/08/14 16:57:26;;;;;;;;;5.67;5.67;;;;;28.23;41.98;100243.31;4958329;28;45337;-74
2022/08/14 16:59:54;;;;;;;;;6.33;5.33;;;;;28.19;42.01;100250.25;4958519;28;45452;-74
2022/08/14 17:02:33;;;;;;;;;6.00;6.00;;;;;28.14;42.07;100239.91;4959670;28;45371;-74
2022/08/14 17:05:21;;;;;;;;;5.00;5.00;;;;;28.14;41.93;100228.16;4959348;28;45337;-74
2022/08/14 17:08:02;;;;;;;;;5.67;5.67;;;;;28.05;42.39;100231.06;4959533;28;45410;-74
2022/08/14 17:10:28;;;;;;;;;6.00;6.00;;;;;28.01;42.46;100231.66;4961852;28;45743;-74
2022/08/14 17:13:20;;;;;;;;;7.33;6.00;;;;;27.98;42.53;100232.06;4963828;28;46007;-74
2022/08/14 17:16:12;;;;;;;;;7.33;6.00;;;;;27.91;42.23;100221.09;4959583;28;45183;-74
2022/08/14 17:18:52;;;;;;;;;5.00;5.00;;;;;27.89;42.99;100226.78;4962369;28;45434;-74
2022/08/14 17:21:26;;;;;;;;;4.67;4.00;;;;;27.91;42.73;100229.28;4964564;28;45263;-74
2022/08/14 17:23:56;;;;;;;;;8.67;7.33;;;;;27.90;43.29;100236.66;4964865;28;45500;-74
2022/08/14 17:26:49;;;;;;;;;4.67;4.67;;;;;27.81;43.07;100251.56;4967939;28;45337;-74
2022/08/14 17:29:21;;;;;;;;;4.00;3.00;;;;;27.78;43.29;100265.59;4969703;28;45254;-74
2022/08/14 17:31:49;;;;;;;;;3.00;3.00;;;;;27.66;43.79;100262.59;4964081;28;45380;-75
2022/08/14 17:34:17;;;;;;;;;2.33;2.33;;;;;27.49;45.29;100270.28;4969005;28;46287;-75
2022/08/14 17:36:52;;;;;;;;;2.67;2.67;;;;;27.41;46.15;100270.47;4964521;28;45413;-75
2022/08/14 17:39:20;;;;;;;;;3.67;3.67;;;;;27.24;46.51;100272.63;4967945;28;45413;-75
2022/08/14 17:41:52;;;;;;;;;3.00;3.00;;;;;27.05;45.83;100274.16;4966295;28;45549;-75
2022/08/14 17:44:33;;;;;;;;;1.67;1.67;;;;;26.93;46.07;100270.28;4967436;28;47002;-75
2022/08/14 17:47:06;;;;;;;;;3.00;3.00;;;;;26.73;45.32;100269.06;4970081;28;45331;-75